createdAt,value
2023-01-27T00:00:15.741Z,5.90
2023-01-27T00:02:43.770Z,5.80
2023-01-27T00:05:12.825Z,5.80
2023-01-27T00:07:46.281Z,5.30
2023-01-27T00:10:15.833Z,6.10
2023-01-27T00:13:02.526Z,5.90
2023-01-27T00:15:30.311Z,5.90
2023-01-27T00:17:57.069Z,6.00
2023-01-27T00:20:42.369Z,5.80
2023-01-27T00:23:47.814Z,5.90
2023-01-27T00:26:16.642Z,6.00
2023-01-27T00:28:45.173Z,5.90
2023-01-27T00:31:31.857Z,6.00
2023-01-27T00:34:02.019Z,5.90
2023-01-27T00:36:29.883Z,6.00
2023-01-27T00:38:57.126Z,5.90
2023-01-27T00:41:24.000Z,7.70
2023-01-27T00:43:53.049Z,6.00
2023-01-27T00:46:21.448Z,6.00
2023-01-27T00:48:49.083Z,5.90
2023-01-27T00:51:17.501Z,5.90
2023-01-27T00:53:44.744Z,6.00
2023-01-27T00:56:11.370Z,6.30
2023-01-27T00:58:38.017Z,6.10
2023-01-27T01:01:08.481Z,6.00
2023-01-27T01:03:36.317Z,6.00
2023-01-27T01:06:05.901Z,6.00
2023-01-27T01:08:34.689Z,6.00
2023-01-27T01:11:01.409Z,6.00
2023-01-27T01:13:28.364Z,6.00
2023-01-27T01:15:56.130Z,6.00
2023-01-27T01:18:23.543Z,6.00
2023-01-27T01:20:50.448Z,5.90
2023-01-27T01:23:17.140Z,6.00
2023-01-27T01:25:51.874Z,6.10
2023-01-27T01:28:18.446Z,6.10
2023-01-27T01:30:45.081Z,6.20
2023-01-27T01:33:11.891Z,6.10
2023-01-27T01:35:39.608Z,6.20
2023-01-27T01:38:06.890Z,6.10
2023-01-27T01:40:34.360Z,6.10
2023-01-27T01:43:06.914Z,6.10
2023-01-27T01:45:33.677Z,6.10
2023-01-27T01:48:03.796Z,6.00
2023-01-27T01:50:31.364Z,6.00
2023-01-27T01:52:59.190Z,6.00
2023-01-27T01:55:26.021Z,6.00
2023-01-27T01:57:52.911Z,6.00
2023-01-27T02:00:19.918Z,6.00
2023-01-27T02:02:48.552Z,5.90
2023-01-27T02:05:32.441Z,6.00
2023-01-27T02:08:08.085Z,6.00
2023-01-27T02:10:35.145Z,6.00
2023-01-27T02:13:01.799Z,6.00
2023-01-27T02:15:30.423Z,6.00
2023-01-27T02:17:58.939Z,6.00
2023-01-27T02:20:41.335Z,6.10
2023-01-27T02:23:28.139Z,6.00
2023-01-27T02:26:09.533Z,6.00
2023-01-27T02:28:36.585Z,6.00
2023-01-27T02:31:03.453Z,6.10
2023-01-27T02:33:30.248Z,5.90
2023-01-27T02:36:00.050Z,5.80
2023-01-27T02:38:34.329Z,5.90
2023-01-27T02:41:11.797Z,5.90
2023-01-27T02:43:38.402Z,5.90
2023-01-27T02:46:05.086Z,5.90
2023-01-27T02:48:31.738Z,5.90
2023-01-27T02:50:58.373Z,6.60
2023-01-27T02:53:25.001Z,6.00
2023-01-27T02:55:51.777Z,6.00
2023-01-27T02:58:18.510Z,6.00
2023-01-27T03:00:45.271Z,7.30
2023-01-27T03:03:11.861Z,5.90
2023-01-27T03:05:38.677Z,5.80
2023-01-27T03:08:05.287Z,6.00
2023-01-27T03:10:31.865Z,5.80
2023-01-27T03:12:58.743Z,5.80
2023-01-27T03:15:43.769Z,5.80
2023-01-27T03:18:17.849Z,5.80
2023-01-27T03:20:46.972Z,5.80
2023-01-27T03:23:15.377Z,5.70
2023-01-27T03:25:44.451Z,5.70
2023-01-27T03:28:11.902Z,5.60
2023-01-27T03:30:39.662Z,5.60
2023-01-27T03:33:07.472Z,5.60
2023-01-27T03:35:39.030Z,5.60
2023-01-27T03:38:30.861Z,5.60
2023-01-27T03:41:16.429Z,5.70
2023-01-27T03:44:01.893Z,5.40
2023-01-27T03:46:28.553Z,5.40
2023-01-27T03:48:56.461Z,5.40
2023-01-27T03:51:24.784Z,5.40
2023-01-27T03:53:52.069Z,5.50
2023-01-27T03:56:20.354Z,5.50
2023-01-27T03:58:48.922Z,5.50
2023-01-27T04:01:23.716Z,5.60
2023-01-27T04:04:10.183Z,5.60
2023-01-27T04:06:58.219Z,5.60
2023-01-27T04:09:33.937Z,5.60
2023-01-27T04:12:03.165Z,5.60
2023-01-27T04:14:39.452Z,5.50
2023-01-27T04:17:11.484Z,5.30
2023-01-27T04:19:38.814Z,5.30
2023-01-27T04:22:06.631Z,5.30
2023-01-27T04:24:33.718Z,5.30
2023-01-27T04:27:05.965Z,5.30
2023-01-27T04:29:37.921Z,5.30
2023-01-27T04:32:06.172Z,5.30
2023-01-27T04:34:33.139Z,5.40
2023-01-27T04:36:59.942Z,5.40
2023-01-27T04:39:26.838Z,5.30
2023-01-27T04:41:53.504Z,5.30
2023-01-27T04:44:20.339Z,5.30
2023-01-27T04:46:47.475Z,5.30
2023-01-27T04:49:14.507Z,5.50
2023-01-27T04:51:41.157Z,5.40
2023-01-27T04:54:07.957Z,5.70
2023-01-27T04:56:41.116Z,5.50
2023-01-27T04:59:11.752Z,5.40
2023-01-27T05:01:38.555Z,5.20
2023-01-27T05:04:05.331Z,5.10
2023-01-27T05:06:32.101Z,5.10
2023-01-27T05:08:58.849Z,5.10
2023-01-27T05:11:25.749Z,6.40
2023-01-27T05:13:52.392Z,5.00
2023-01-27T05:16:24.196Z,5.10
2023-01-27T05:18:52.463Z,5.10
2023-01-27T05:21:24.338Z,5.20
2023-01-27T05:23:51.156Z,5.20
2023-01-27T05:26:22.421Z,5.20
2023-01-27T05:28:50.142Z,5.20
2023-01-27T05:31:28.320Z,5.20
2023-01-27T05:33:56.267Z,5.30
2023-01-27T05:36:24.650Z,5.20
2023-01-27T05:38:51.841Z,5.10
2023-01-27T05:41:19.619Z,5.40
2023-01-27T05:43:50.955Z,3.60
2023-01-27T05:46:20.138Z,5.10
2023-01-27T05:48:48.771Z,5.20
2023-01-27T05:51:17.786Z,5.20
2023-01-27T05:53:44.625Z,5.20
2023-01-27T05:56:14.214Z,5.20
2023-01-27T05:58:41.333Z,5.20
2023-01-27T06:01:09.452Z,6.80
2023-01-27T06:03:36.615Z,5.20
2023-01-27T06:06:04.047Z,5.30
2023-01-27T06:08:31.105Z,5.40
2023-01-27T06:10:58.651Z,5.30
2023-01-27T06:13:25.527Z,5.20
2023-01-27T06:15:52.191Z,6.00
2023-01-27T06:18:19.620Z,5.30
2023-01-27T06:20:46.771Z,5.20
2023-01-27T06:23:15.169Z,5.20
2023-01-27T06:25:47.054Z,5.10
2023-01-27T06:28:28.077Z,5.10
2023-01-27T06:30:55.303Z,5.00
2023-01-27T06:33:21.916Z,5.00
2023-01-27T06:35:48.597Z,4.90
2023-01-27T06:38:15.525Z,4.90
2023-01-27T06:40:43.217Z,4.90
2023-01-27T06:43:14.841Z,4.80
2023-01-27T06:45:41.555Z,4.80
2023-01-27T06:48:08.975Z,4.90
2023-01-27T06:50:36.824Z,4.90
2023-01-27T06:53:07.128Z,5.10
2023-01-27T06:55:35.509Z,5.20
2023-01-27T06:58:02.873Z,5.30
2023-01-27T07:00:30.141Z,5.20
2023-01-27T07:02:57.004Z,5.20
2023-01-27T07:05:24.383Z,5.50
2023-01-27T07:07:51.188Z,6.20
2023-01-27T07:10:18.028Z,6.30
2023-01-27T07:12:44.685Z,5.90
2023-01-27T07:15:11.868Z,5.50
2023-01-27T07:17:38.820Z,5.30
2023-01-27T07:20:08.156Z,5.10
2023-01-27T07:22:34.754Z,5.10
2023-01-27T07:25:02.239Z,7.10
2023-01-27T07:27:29.529Z,5.00
2023-01-27T07:29:56.235Z,5.00
2023-01-27T07:32:22.886Z,5.10
2023-01-27T07:34:49.518Z,5.10
2023-01-27T07:37:16.897Z,5.10
2023-01-27T07:39:43.604Z,5.30
2023-01-27T07:42:10.300Z,5.10
2023-01-27T07:44:36.941Z,5.10
2023-01-27T07:47:04.068Z,5.10
2023-01-27T07:49:30.638Z,5.10
2023-01-27T07:51:57.234Z,5.20
2023-01-27T07:54:25.140Z,5.40
2023-01-27T07:56:51.770Z,5.30
2023-01-27T07:59:18.416Z,5.30
2023-01-27T08:01:47.187Z,5.40
2023-01-27T08:04:14.786Z,5.50
2023-01-27T08:06:41.429Z,5.40
2023-01-27T08:09:08.037Z,5.50
2023-01-27T08:11:35.588Z,5.30
2023-01-27T08:14:02.413Z,5.20
2023-01-27T08:16:29.348Z,5.20
2023-01-27T08:18:56.572Z,5.10
2023-01-27T08:21:25.137Z,5.10
2023-01-27T08:23:54.328Z,5.10
2023-01-27T08:26:20.987Z,5.10
2023-01-27T08:28:47.603Z,5.00
2023-01-27T08:31:16.261Z,5.10
2023-01-27T08:33:51.088Z,5.00
2023-01-27T08:36:19.130Z,4.00
2023-01-27T08:38:46.277Z,4.90
2023-01-27T08:41:15.847Z,5.00
2023-01-27T08:43:43.110Z,5.10
2023-01-27T08:46:10.245Z,4.90
2023-01-27T08:48:38.189Z,4.90
2023-01-27T08:51:06.298Z,4.90
2023-01-27T08:53:34.243Z,4.90
2023-01-27T08:56:05.065Z,4.90
2023-01-27T08:58:33.391Z,6.40
2023-01-27T09:01:04.446Z,5.10
2023-01-27T09:03:32.918Z,4.90
2023-01-27T09:06:00.184Z,4.80
2023-01-27T09:08:28.098Z,4.80
2023-01-27T09:10:54.731Z,4.80
2023-01-27T09:13:22.334Z,5.00
2023-01-27T09:15:51.994Z,4.90
2023-01-27T09:18:18.756Z,5.00
2023-01-27T09:20:45.379Z,5.00
2023-01-27T09:23:12.044Z,4.80
2023-01-27T09:25:38.704Z,4.90
2023-01-27T09:28:05.339Z,4.70
2023-01-27T09:30:31.946Z,4.80
2023-01-27T09:33:01.427Z,4.90
2023-01-27T09:35:54.520Z,4.90
2023-01-27T09:38:23.344Z,4.90
2023-01-27T09:41:17.586Z,4.80
2023-01-27T09:43:59.252Z,4.80
2023-01-27T09:46:53.664Z,4.80
2023-01-27T09:49:23.974Z,4.60
2023-01-27T09:52:07.260Z,4.60
2023-01-27T09:54:48.674Z,4.60
2023-01-27T09:57:38.429Z,4.60
2023-01-27T10:00:25.965Z,4.70
2023-01-27T10:03:09.848Z,4.70
2023-01-27T10:06:04.258Z,4.70
2023-01-27T10:08:55.737Z,4.70
2023-01-27T10:11:49.450Z,4.80
2023-01-27T10:14:26.456Z,4.90
2023-01-27T10:17:25.039Z,4.90
2023-01-27T10:20:13.776Z,4.90
2023-01-27T10:22:59.107Z,5.00
2023-01-27T10:25:36.942Z,4.90
2023-01-27T10:28:13.807Z,4.90
2023-01-27T10:30:50.108Z,5.00
2023-01-27T10:33:18.194Z,4.90
2023-01-27T10:35:58.934Z,5.00
2023-01-27T10:38:34.323Z,5.00
2023-01-27T10:41:38.603Z,5.00
2023-01-27T10:44:34.249Z,4.90
2023-01-27T10:47:11.631Z,4.90
2023-01-27T10:49:46.994Z,5.00
2023-01-27T10:52:26.712Z,5.10
2023-01-27T10:55:07.836Z,5.00
2023-01-27T10:57:43.537Z,5.10
2023-01-27T11:03:28.652Z,5.30
2023-01-27T11:06:02.251Z,5.80
2023-01-27T11:08:33.982Z,6.40
2023-01-27T11:11:24.046Z,6.00
2023-01-27T11:14:02.214Z,5.80
2023-01-27T11:16:36.709Z,5.60
2023-01-27T11:19:23.568Z,5.50
2023-01-27T11:22:06.275Z,5.30
2023-01-27T11:24:46.325Z,5.30
2023-01-27T11:27:36.472Z,5.40
2023-01-27T11:30:15.206Z,5.20
2023-01-27T11:32:54.004Z,5.00
2023-01-27T11:35:22.520Z,5.00
2023-01-27T11:37:51.164Z,5.10
2023-01-27T11:40:37.518Z,5.00
2023-01-27T11:43:04.945Z,5.00
2023-01-27T11:45:35.473Z,4.90
2023-01-27T11:48:05.132Z,4.80
2023-01-27T11:50:34.739Z,5.00
2023-01-27T11:53:12.828Z,5.00
2023-01-27T11:55:51.819Z,4.90
2023-01-27T11:58:21.485Z,5.00
2023-01-27T12:00:54.837Z,5.00
2023-01-27T12:03:46.156Z,5.10
2023-01-27T12:06:39.163Z,5.10
2023-01-27T12:09:05.856Z,5.00
2023-01-27T12:11:32.870Z,5.20
2023-01-27T12:14:04.496Z,5.00
2023-01-27T12:16:45.915Z,5.10
2023-01-27T12:19:32.078Z,5.00
2023-01-27T12:22:02.956Z,4.90
2023-01-27T12:24:33.413Z,5.00
2023-01-27T12:27:01.279Z,5.00
2023-01-27T12:29:40.632Z,5.00
2023-01-27T12:32:17.403Z,4.90
2023-01-27T12:34:51.554Z,4.90
2023-01-27T12:37:26.879Z,4.90
2023-01-27T12:40:00.336Z,4.80
2023-01-27T12:42:44.190Z,4.80
2023-01-27T12:45:22.262Z,4.90
2023-01-27T12:48:07.466Z,4.80
2023-01-27T12:51:01.194Z,5.00
2023-01-27T12:53:28.104Z,4.90
2023-01-27T12:56:07.287Z,5.00
2023-01-27T12:58:45.541Z,5.10
2023-01-27T13:01:22.958Z,5.20
2023-01-27T13:03:53.527Z,5.30
2023-01-27T13:06:27.212Z,5.40
2023-01-27T13:08:54.878Z,5.20
2023-01-27T13:11:37.315Z,5.20
2023-01-27T13:14:07.787Z,5.20
2023-01-27T13:16:34.715Z,5.10
2023-01-27T13:19:01.722Z,5.10
2023-01-27T13:21:38.910Z,5.00
2023-01-27T13:24:13.295Z,5.00
2023-01-27T13:26:41.085Z,5.20
2023-01-27T13:29:14.752Z,5.10
2023-01-27T13:32:06.288Z,5.00
2023-01-27T13:34:45.839Z,5.00
2023-01-27T13:37:18.207Z,5.10
2023-01-27T13:40:22.861Z,6.10
2023-01-27T13:43:20.099Z,6.30
2023-01-27T13:45:52.174Z,5.80
2023-01-27T13:48:35.102Z,5.30
2023-01-27T13:51:12.996Z,5.10
2023-01-27T13:53:40.490Z,5.00
2023-01-27T13:56:22.417Z,5.00
2023-01-27T13:58:58.164Z,5.00
2023-01-27T14:01:58.754Z,5.00
2023-01-27T14:05:00.158Z,5.00
2023-01-27T14:07:41.311Z,5.10
2023-01-27T14:10:37.830Z,5.10
2023-01-27T14:13:32.540Z,5.00
2023-01-27T14:16:11.637Z,5.10
2023-01-27T14:18:48.481Z,5.10
2023-01-27T14:21:31.159Z,5.20
2023-01-27T14:24:29.813Z,5.40
2023-01-27T14:27:08.380Z,5.40
2023-01-27T14:30:00.756Z,5.40
2023-01-27T14:32:52.196Z,5.20
2023-01-27T14:35:33.975Z,5.20
2023-01-27T14:38:39.245Z,5.30
2023-01-27T14:41:14.218Z,5.20
2023-01-27T14:44:11.091Z,4.90
2023-01-27T14:47:05.294Z,4.80
2023-01-27T14:49:47.493Z,4.80
2023-01-27T14:52:24.997Z,4.70
2023-01-27T14:55:12.797Z,4.60
2023-01-27T14:57:47.820Z,4.50
2023-01-27T15:00:20.401Z,4.20
2023-01-27T15:03:21.211Z,4.50
2023-01-27T15:06:07.779Z,4.60
2023-01-27T15:08:51.573Z,4.70
2023-01-27T15:11:49.386Z,4.70
2023-01-27T15:14:43.445Z,4.70
2023-01-27T15:17:17.259Z,4.70
2023-01-27T15:20:06.574Z,4.70
2023-01-27T15:22:33.894Z,4.80
2023-01-27T15:25:25.062Z,4.80
2023-01-27T15:27:53.854Z,4.70
2023-01-27T15:30:34.507Z,4.80
2023-01-27T15:33:01.648Z,4.80
2023-01-27T15:35:38.664Z,4.80
2023-01-27T15:38:05.220Z,6.40
2023-01-27T15:41:11.605Z,5.70
2023-01-27T15:43:41.624Z,5.80
2023-01-27T15:46:23.813Z,5.60
2023-01-27T15:48:50.574Z,5.40
2023-01-27T15:51:19.718Z,5.30
2023-01-27T15:53:50.956Z,5.30
2023-01-27T15:56:17.838Z,4.80
2023-01-27T15:58:53.443Z,4.70
2023-01-27T16:01:29.764Z,5.00
2023-01-27T16:04:14.153Z,4.90
2023-01-27T16:07:17.511Z,4.90
2023-01-27T16:09:49.044Z,5.00
2023-01-27T16:12:27.590Z,6.70
2023-01-27T16:15:19.147Z,5.00
2023-01-27T16:18:02.096Z,4.90
2023-01-27T16:20:32.277Z,4.90
2023-01-27T16:23:22.702Z,4.60
2023-01-27T16:25:54.700Z,4.60
2023-01-27T16:28:27.223Z,4.70
2023-01-27T16:31:16.204Z,4.80
2023-01-27T16:33:46.875Z,4.70
2023-01-27T16:36:31.135Z,4.70
2023-01-27T16:39:03.621Z,4.60
2023-01-27T16:41:36.157Z,4.70
2023-01-27T16:44:22.226Z,4.70
2023-01-27T16:47:39.625Z,4.90
2023-01-27T16:50:06.710Z,4.80
2023-01-27T16:52:42.184Z,4.80
2023-01-27T16:55:24.243Z,4.90
2023-01-27T16:57:52.167Z,4.90
2023-01-27T17:00:26.296Z,4.60
2023-01-27T17:02:54.966Z,4.50
2023-01-27T17:05:22.369Z,4.50
2023-01-27T17:08:11.317Z,4.40
2023-01-27T17:10:43.268Z,4.50
2023-01-27T17:13:36.464Z,4.50
2023-01-27T17:16:06.745Z,4.70
2023-01-27T17:18:50.827Z,4.70
2023-01-27T17:21:35.967Z,4.80
2023-01-27T17:24:30.091Z,4.60
2023-01-27T17:27:14.820Z,4.50
2023-01-27T17:29:44.036Z,4.60
2023-01-27T17:32:33.952Z,4.50
2023-01-27T17:35:04.358Z,4.50
2023-01-27T17:37:32.018Z,4.50
2023-01-27T17:40:03.642Z,4.70
2023-01-27T17:42:32.740Z,4.60
2023-01-27T17:45:23.422Z,4.70
2023-01-27T17:47:50.691Z,4.70
2023-01-27T17:50:20.368Z,4.60
2023-01-27T17:52:52.600Z,4.40
2023-01-27T17:55:24.296Z,4.50
2023-01-27T17:58:06.338Z,4.40
2023-01-27T18:00:40.062Z,4.30
2023-01-27T18:03:15.805Z,4.30
2023-01-27T18:05:44.980Z,4.50
2023-01-27T18:08:11.685Z,4.30
2023-01-27T18:10:41.229Z,4.40
2023-01-27T18:13:33.820Z,5.10
2023-01-27T18:16:02.852Z,5.20
2023-01-27T18:18:32.419Z,5.10
2023-01-27T18:21:03.130Z,5.10
2023-01-27T18:23:43.268Z,5.00
2023-01-27T18:26:18.700Z,4.90
2023-01-27T18:28:48.572Z,4.70
2023-01-27T18:31:20.551Z,4.60
2023-01-27T18:34:13.465Z,4.50
2023-01-27T18:36:53.362Z,4.50
2023-01-27T18:39:40.245Z,4.50
2023-01-27T18:42:13.469Z,4.70
2023-01-27T18:44:40.091Z,4.70
2023-01-27T18:47:22.936Z,5.90
2023-01-27T18:50:01.058Z,4.70
2023-01-27T18:52:29.036Z,4.70
2023-01-27T18:55:01.731Z,4.80
2023-01-27T18:57:28.669Z,4.90
2023-01-27T18:59:55.250Z,4.80
2023-01-27T19:02:22.255Z,4.70
2023-01-27T19:04:48.962Z,4.70
2023-01-27T19:07:17.909Z,4.70
2023-01-27T19:09:46.172Z,4.80
2023-01-27T19:12:12.838Z,4.80
2023-01-27T19:14:41.794Z,4.80
2023-01-27T19:17:17.816Z,4.70
2023-01-27T19:19:44.465Z,4.80
2023-01-27T19:22:17.143Z,4.90
2023-01-27T19:24:46.762Z,4.60
2023-01-27T19:27:15.280Z,6.00
2023-01-27T19:29:42.209Z,4.50
2023-01-27T19:32:15.393Z,4.50
2023-01-27T19:34:42.055Z,4.60
2023-01-27T19:37:18.563Z,4.70
2023-01-27T19:39:46.191Z,4.90
2023-01-27T19:42:15.114Z,4.90
2023-01-27T19:44:41.995Z,5.00
2023-01-27T19:47:12.950Z,5.10
2023-01-27T19:49:40.579Z,4.90
2023-01-27T19:52:07.351Z,4.80
2023-01-27T19:54:34.502Z,4.70
2023-01-27T19:57:01.330Z,4.70
2023-01-27T19:59:28.484Z,4.80
2023-01-27T20:01:56.581Z,4.90
2023-01-27T20:04:23.563Z,4.90
2023-01-27T20:06:50.384Z,4.90
2023-01-27T20:09:17.005Z,4.80
2023-01-27T20:11:44.553Z,4.70
2023-01-27T20:14:16.263Z,4.70
2023-01-27T20:16:43.619Z,4.70
2023-01-27T20:19:13.265Z,4.80
2023-01-27T20:21:39.900Z,4.80
2023-01-27T20:24:07.127Z,4.90
2023-01-27T20:26:33.819Z,5.10
2023-01-27T20:29:00.397Z,5.20
2023-01-27T20:31:27.031Z,5.50
2023-01-27T20:33:53.650Z,5.00
2023-01-27T20:36:22.302Z,5.00
2023-01-27T20:38:50.029Z,5.10
2023-01-27T20:41:20.221Z,5.00
2023-01-27T20:43:47.306Z,4.90
2023-01-27T20:46:18.058Z,4.80
2023-01-27T20:48:44.855Z,4.70
2023-01-27T20:51:14.328Z,4.80
2023-01-27T20:53:45.829Z,4.80
2023-01-27T20:56:21.146Z,4.80
2023-01-27T20:58:48.083Z,4.90
2023-01-27T21:01:17.234Z,4.70
2023-01-27T21:03:44.153Z,4.70
2023-01-27T21:06:12.914Z,4.50
2023-01-27T21:08:39.934Z,4.50
2023-01-27T21:11:10.574Z,4.50
2023-01-27T21:13:37.384Z,4.60
2023-01-27T21:16:04.060Z,4.60
2023-01-27T21:18:30.693Z,4.60
2023-01-27T21:21:00.719Z,4.60
2023-01-27T21:23:27.999Z,4.50
2023-01-27T21:25:55.032Z,4.40
2023-01-27T21:28:22.104Z,4.30
2023-01-27T21:30:49.016Z,4.40
2023-01-27T21:33:16.035Z,4.40
2023-01-27T21:35:42.635Z,4.50
2023-01-27T21:38:09.272Z,4.30
2023-01-27T21:40:36.004Z,4.70
2023-01-27T21:43:21.320Z,4.60
2023-01-27T21:45:58.251Z,4.50
2023-01-27T21:48:24.907Z,4.40
2023-01-27T21:50:52.036Z,4.30
2023-01-27T21:53:18.623Z,4.30
2023-01-27T21:55:45.274Z,4.40
2023-01-27T21:58:11.891Z,4.40
2023-01-27T22:00:38.588Z,4.60
2023-01-27T22:03:05.291Z,4.60
2023-01-27T22:05:33.101Z,4.60
2023-01-27T22:08:01.960Z,4.80
2023-01-27T22:10:29.984Z,4.60
2023-01-27T22:12:58.421Z,4.50
2023-01-27T22:15:25.347Z,4.50
2023-01-27T22:17:52.136Z,4.60
2023-01-27T22:20:19.113Z,4.50
2023-01-27T22:22:46.075Z,4.50
2023-01-27T22:25:15.255Z,4.50
2023-01-27T22:27:43.022Z,4.50
2023-01-27T22:30:16.959Z,4.50
2023-01-27T22:32:44.862Z,4.40
2023-01-27T22:35:15.104Z,4.50
2023-01-27T22:37:42.058Z,4.40
2023-01-27T22:40:10.058Z,4.40
2023-01-27T22:42:39.787Z,4.40
2023-01-27T22:45:08.299Z,6.60
2023-01-27T22:47:35.229Z,4.50
2023-01-27T22:50:02.097Z,4.50
2023-01-27T22:52:28.750Z,4.50
2023-01-27T22:54:55.345Z,4.80
2023-01-27T22:57:21.950Z,4.70
2023-01-27T22:59:48.529Z,4.50
2023-01-27T23:02:15.171Z,4.70
2023-01-27T23:04:41.779Z,2.60
2023-01-27T23:07:08.350Z,4.30
2023-01-27T23:09:35.010Z,4.50
2023-01-27T23:12:01.639Z,4.40
2023-01-27T23:14:28.247Z,4.50
2023-01-27T23:16:55.072Z,5.90
2023-01-27T23:19:21.962Z,4.60
2023-01-27T23:21:48.586Z,4.70
2023-01-27T23:24:15.473Z,4.80
2023-01-27T23:26:42.106Z,4.60
2023-01-27T23:29:23.102Z,4.60
2023-01-27T23:31:51.355Z,4.50
2023-01-27T23:34:18.113Z,4.60
2023-01-27T23:36:44.773Z,4.40
2023-01-27T23:39:15.084Z,4.50
2023-01-27T23:41:41.680Z,4.50
2023-01-27T23:44:10.966Z,4.60
2023-01-27T23:46:37.614Z,4.50
2023-01-27T23:49:04.293Z,4.50
2023-01-27T23:51:31.038Z,6.60
2023-01-27T23:53:57.760Z,4.40
2023-01-27T23:56:24.419Z,4.40
2023-01-27T23:58:51.005Z,4.60
